Aérodrome :
LOGIN :

S'inscrire | Disclaimer

   EN    FR    IT 

 










Légende :    VFR   VFR Marginal   IFR   IFR Intensif   IFR Très Intensif
Visi : 
Plafond : 
>= 8 km
>= 3000ft
5 à 8 km
1000 à 3000 ft
1500m à 5 km
500 à 1000 ft
800 à 1500m
200 à 500 ft
< 800m
< 200 ft
Symboles :   Orages  Brouillard  Fortes neiges  Fortes précipitations  Vent > 20 kt
SIGMETs :   Divers  Orages  Givrage  Turbulence  Onde Orograph.  Cendres Volcan.







- Altitude de l'aérodrome : 459 ft
- Code IATA : CER
- Voir les cartes d'approche


LFRC - Cherbourg / Maupertus

DERNIER METAR :
  • 202100Z AUTO 30017KT 280V340 9999 SCT022 BKN027 OVC036 09/06 Q1008

METARs EXPIRÉS :
  • 202030Z AUTO 30020KT 9999 SCT025 OVC034 10/06 Q1007
  • 202000Z AUTO 29020KT 9999 SCT025 OVC043 09/06 Q1006
  • 201930Z AUTO 30019KT 9999 FEW021 BKN027 BKN033 10/06 Q1006
  • 201900Z AUTO 30019KT 9999 SCT027 SCT033 BKN041 10/07 Q1005 TEMPO 4000 RADZ BKN004 BECMG 28020G30KT
  • 201830Z AUTO 30019KT 9999 FEW010 SCT018 OVC026 10/08 Q1004 TEMPO 4000 RADZ BKN004 BECMG 28020G30KT
  • 201800Z AUTO 29020KT 8000 FEW006 SCT013 BKN021 10/09 Q1003 TEMPO 4000 RADZ BKN004 BECMG 28020G30KT

TAF AMD TAF LFRC
Valide du 20 à 15h jusqu'au 21 à 00h UTC


201546Z 2015/2024 28020G30KT 9999 BKN015
TEMPO 2015/2024 4000 RADZ BKN004
BECMG 2022/2024 32015KT
Pas de NOTAMs connus pour ce terrain.
1 SIGMET publié pour la FIR Brest (LFRR) :
 
Turbulence forte
LFRR SIGMET 5 VALID 201800/202200 LFPW
LFRR BREST FIR/UIR SEV TURB FCST SE OF LINE N4615 W00130 - N4415 W00445 SFC/FL040 STNR NC=



MET'MAP, la Météo Aéronautique d'un coup d'oeil ! - Copyright ORBIFLY Décembre 2007 - Disclaimer

ORBIFLY MET'MAP TEAM :

Programmation & Développement : Alexandra Zaïnal
Conception & Développement : Baudouin d'Aumeries
Co-Programmation & Développement : Marc-Olivier Méhu
Soutien technique & logistique : Manuel Goepfert

Contact : metmap@orbifly.com




SOURCES & CREDITS :

   NOAA